Time;durP1;ratioP1;P1;durP2;ratioP2;P2;SDS_P1;SDS_P2;PMS_P1;PMS_P2;Temp;Humidity;BMP_temperature;BMP_pressure;BME280_temperature;BME280_humidity;BME280_pressure;Samples;Min_cycle;Max_cycle;Signal;HPM_P1;HPM_P2
2023/11/01 00:01:31;;;;;;;27.50;5.32;;;;;;;;;;5112519;28;20277;-68
2023/11/01 00:04:36;;;;;;;20.38;5.05;;;;;;;;;;5112929;28;20054;-68
2023/11/01 00:07:40;;;;;;;17.50;4.40;;;;;;;;;;5112468;28;20046;-69
2023/11/01 00:10:44;;;;;;;22.20;4.70;;;;;;;;;;5112459;28;20047;-69
2023/11/01 00:13:49;;;;;;;14.32;4.43;;;;;;;;;;5112746;28;20070;-68
2023/11/01 00:16:53;;;;;;;23.23;5.47;;;;;;;;;;5111606;28;20043;-68
2023/11/01 00:19:57;;;;;;;18.20;4.82;;;;;;;;;;5112512;28;20043;-68
2023/11/01 00:23:02;;;;;;;23.90;5.43;;;;;;;;;;5112233;28;20403;-67
2023/11/01 00:26:06;;;;;;;23.77;5.60;;;;;;;;;;5111905;28;20039;-68
2023/11/01 00:29:11;;;;;;;17.73;5.13;;;;;;;;;;5112323;28;20454;-67
2023/11/01 00:32:16;;;;;;;17.75;5.15;;;;;;;;;;5112421;28;20242;-68
2023/11/01 00:35:20;;;;;;;19.13;5.88;;;;;;;;;;5112256;28;20042;-68
2023/11/01 00:38:25;;;;;;;21.17;5.80;;;;;;;;;;5099568;28;20042;-68
2023/11/01 00:41:30;;;;;;;17.50;5.32;;;;;;;;;;5112121;28;20407;-68
2023/11/01 00:44:37;;;;;;;20.33;6.18;;;;;;;;;;5112615;28;20486;-68
2023/11/01 00:47:41;;;;;;;22.25;5.40;;;;;;;;;;5111976;28;20046;-69
2023/11/01 00:50:45;;;;;;;26.20;6.75;;;;;;;;;;5111826;28;20064;-67
2023/11/01 00:53:50;;;;;;;18.67;5.10;;;;;;;;;;5111851;28;20087;-68
2023/11/01 00:56:54;;;;;;;21.88;5.50;;;;;;;;;;5111667;28;20506;-68
2023/11/01 00:59:58;;;;;;;23.52;5.30;;;17.70;98.60;;;;;;5110995;28;20050;-68
2023/11/01 01:03:03;;;;;;;14.50;4.43;;;;;;;;;;5111772;28;20055;-68
2023/11/01 01:06:07;;;;;;;20.52;4.68;;;;;;;;;;5111665;28;20042;-67
2023/11/01 01:09:14;;;;;;;20.02;4.53;;;;;;;;;;5111397;28;20518;-67
2023/11/01 01:12:19;;;;;;;15.73;4.90;;;;;;;;;;5111593;28;20051;-68
2023/11/01 01:15:23;;;;;;;19.42;4.72;;;;;;;;;;5111443;28;20063;-68
2023/11/01 01:18:28;;;;;;;20.33;5.15;;;;;;;;;;5111524;28;20050;-68
2023/11/01 01:21:31;;;;;;;23.60;5.10;;;;;;;;;;5099026;28;20149;-69
2023/11/01 01:24:36;;;;;;;23.55;5.13;;;;;;;;;;5110903;28;20154;-68
2023/11/01 01:27:41;;;;;;;19.27;5.03;;;;;;;;;;5111186;28;20035;-67
2023/11/01 01:30:45;;;;;;;25.48;5.40;;;;;;;;;;5111108;28;20232;-68
2023/11/01 01:33:49;;;;;;;25.27;5.75;;;;;;;;;;5110363;28;20043;-68
2023/11/01 01:36:55;;;;;;;22.13;5.20;;;;;;;;;;5110224;28;20047;-69
2023/11/01 01:39:59;;;;;;;21.42;4.72;;;;;;;;;;5115464;28;20391;-68
2023/11/01 01:43:30;;;;;;;22.25;4.85;;;;;;;;;;5114803;28;20046;-67
2023/11/01 01:46:34;;;;;;;28.55;5.10;;;;;;;;;;5114698;28;20205;-68
2023/11/01 01:49:38;;;;;;;19.30;5.72;;;;;;;;;;5115267;28;20051;-68
2023/11/01 01:52:43;;;;;;;14.48;4.30;;;;;;;;;;5115354;28;20383;-68
2023/11/01 01:55:48;;;;;;;17.83;5.07;;;;;;;;;;5115050;28;20043;-68
2023/11/01 01:58:55;;;;;;;19.27;4.38;;;;;;;;;;5115164;28;20102;-68
2023/11/01 02:02:00;;;;;;;18.98;4.75;;;;;;;;;;5114343;28;20050;-68
2023/11/01 02:05:06;;;;;;;14.93;3.63;;;;;;;;;;5114442;28;20395;-68
2023/11/01 02:08:14;;;;;;;19.02;4.18;;;;;;;;;;5114616;28;20038;-68
2023/11/01 02:11:18;;;;;;;14.88;3.95;;;;;;;;;;5115263;28;20051;-68
2023/11/01 02:14:23;;;;;;;21.08;4.15;;;;;;;;;;5114096;28;20046;-69
2023/11/01 02:17:27;;;;;;;22.52;4.32;;;;;;;;;;5114802;28;20042;-68
2023/11/01 02:20:36;;;;;;;16.85;4.10;;;17.80;98.90;;;;;;5113691;28;20518;-68
2023/11/01 02:23:43;;;;;;;22.05;4.85;;;17.70;99.20;;;;;;5114676;28;20047;-68
2023/11/01 02:26:47;;;;;;;15.88;4.28;;;;;;;;;;5113820;28;20047;-68
2023/11/01 02:29:52;;;;;;;29.17;4.80;;;;;;;;;;5114211;28;20054;-69
2023/11/01 02:32:56;;;;;;;22.17;4.78;;;;;;;;;;5114696;28;20054;-67
2023/11/01 02:36:00;;;;;;;24.55;4.97;;;;;;;;;;5114597;28;20052;-67
2023/11/01 02:39:06;;;;;;;19.10;3.83;;;;;;;;;;5114474;28;20059;-68
2023/11/01 02:42:11;;;;;;;18.25;3.72;;;;;;;;;;5113513;28;20053;-68
2023/11/01 02:45:16;;;;;;;15.82;3.80;;;;;;;;;;5114589;28;20042;-68
2023/11/01 02:48:21;;;;;;;25.88;5.57;;;;;;;;;;5114049;28;20051;-68
2023/11/01 02:51:25;;;;;;;16.52;4.78;;;;;;;;;;5113912;28;20050;-67
2023/11/01 02:54:29;;;;;;;20.75;4.10;;;;;;;;;;5114282;28;20043;-68
2023/11/01 02:57:33;;;;;;;16.58;4.13;;;;;;;;;;5114170;28;20094;-68
2023/11/01 03:00:38;;;;;;;17.67;3.80;;;;;;;;;;5113677;28;20030;-68
2023/11/01 03:03:43;;;;;;;15.18;3.78;;;;;;;;;;5113990;28;20047;-69
2023/11/01 03:06:47;;;;;;;14.55;3.67;;;;;;;;;;5113202;28;20105;-68
2023/11/01 03:09:52;;;;;;;20.55;3.80;;;;;;;;;;5113636;28;20403;-67
2023/11/01 03:12:56;;;;;;;19.67;3.42;;;;;;;;;;5113947;28;20039;-68
2023/11/01 03:16:01;;;;;;;22.50;4.18;;;;;;;;;;5113763;28;20050;-68
2023/11/01 03:19:05;;;;;;;22.40;4.38;;;;;;;;;;5113499;28;20062;-68
2023/11/01 03:22:10;;;;;;;16.10;4.43;;;;;;;;;;5112795;28;20042;-68
2023/11/01 03:25:14;;;;;;;15.10;3.70;;;;;;;;;;5113536;28;20185;-69
2023/11/01 03:28:18;;;;;;;14.15;3.85;;;;;;;;;;5113596;28;20042;-68
2023/11/01 03:31:23;;;;;;;19.27;4.22;;;;;;;;;;5113034;28;20059;-68
2023/11/01 03:34:27;;;;;;;21.23;5.15;;;;;;;;;;5112833;28;20047;-69
2023/11/01 03:37:33;;;;;;;22.00;3.95;;;;;;;;;;5112896;28;20043;-68
2023/11/01 03:40:38;;;;;;;17.90;4.68;;;;;;;;;;5113029;28;20042;-68
2023/11/01 03:43:43;;;;;;;20.95;4.60;;;;;;;;;;5112416;28;20042;-68
2023/11/01 03:46:48;;;;;;;18.63;4.30;;;;;;;;;;5112068;28;20043;-69
2023/11/01 03:49:52;;;;;;;25.33;4.65;;;;;;;;;;5100358;28;20506;-66
2023/11/01 03:52:56;;;;;;;24.65;5.07;;;;;;;;;;5113084;28;20050;-68
2023/11/01 03:56:06;;;;;;;22.30;5.03;;;18.40;99.90;;;;;;5113312;28;20060;-69
2023/11/01 03:59:10;;;;;;;18.80;4.90;;;;;;;;;;5112844;28;20050;-68
2023/11/01 04:02:17;;;;;;;26.48;5.60;;;;;;;;;;5111357;28;20054;-68
2023/11/01 04:05:21;;;;;;;23.65;5.85;;;;;;;;;;5112770;28;20043;-69
2023/11/01 04:08:25;;;;;;;21.33;7.80;;;;;;;;;;5112647;28;20050;-68
2023/11/01 04:11:30;;;;;;;26.17;5.88;;;;;;;;;;5112860;28;20047;-68
2023/11/01 04:14:35;;;;;;;17.65;5.03;;;;;;;;;;5112362;28;20043;-68
2023/11/01 04:17:42;;;;;;;16.67;4.50;;;;;;;;;;5112349;28;20038;-68
2023/11/01 04:20:46;;;;;;;16.67;4.32;;;;;;;;;;5112465;28;20055;-68
2023/11/01 04:23:51;;;;;;;19.58;4.60;;;;;;;;;;5112171;28;20522;-68
2023/11/01 04:26:55;;;;;;;22.25;5.32;;;;;;;;;;5112540;28;20074;-68
2023/11/01 04:30:00;;;;;;;15.13;3.72;;;;;;;;;;5111796;28;20047;-68
2023/11/01 04:33:07;;;;;;;20.40;4.82;;;17.20;99.90;;;;;;5112282;28;20039;-68
2023/11/01 04:36:12;;;;;;;21.80;3.88;;;;;;;;;;5112179;28;20043;-68
2023/11/01 04:39:16;;;;;;;17.83;4.25;;;;;;;;;;5111928;28;20042;-68
2023/11/01 04:42:20;;;;;;;18.63;4.15;;;;;;;;;;5111968;28;20483;-67
2023/11/01 04:45:25;;;;;;;19.23;4.63;;;;;;;;;;5111836;28;20051;-68
2023/11/01 04:48:29;;;;;;;22.70;4.35;;;;;;;;;;5111604;28;20043;-68
2023/11/01 04:51:34;;;;;;;25.75;5.22;;;;;;;;;;5111156;28;20047;-67
2023/11/01 04:54:38;;;;;;;20.80;4.28;;;;;;;;;;5111003;28;20043;-68
2023/11/01 04:57:43;;;;;;;19.52;3.78;;;;;;;;;;5111733;28;20049;-67
2023/11/01 05:00:48;;;;;;;19.85;4.25;;;;;;;;;;5111640;28;20047;-68
2023/11/01 05:03:52;;;;;;;24.45;4.85;;;;;;;;;;5111661;28;20042;-68
2023/11/01 05:06:56;;;;;;;19.45;4.80;;;;;;;;;;5111623;28;20046;-67
2023/11/01 05:10:02;;;;;;;20.65;5.68;;;;;;;;;;5111301;28;20062;-68
2023/11/01 05:13:06;;;;;;;22.45;5.15;;;;;;;;;;5110939;28;20062;-69
2023/11/01 05:16:10;;;;;;;22.27;4.75;;;;;;;;;;5111295;28;20058;-68
2023/11/01 05:19:16;;;;;;;23.00;4.55;;;;;;;;;;5111437;28;20046;-68
2023/11/01 05:22:20;;;;;;;24.17;4.63;;;;;;;;;;5111461;28;20105;-68
2023/11/01 05:25:25;;;;;;;22.17;4.28;;;;;;;;;;5111385;28;20038;-68
2023/11/01 05:28:29;;;;;;;17.50;4.22;;;;;;;;;;5111354;28;20418;-67
2023/11/01 05:31:34;;;;;;;23.67;5.88;;;;;;;;;;5111105;28;20514;-68
2023/11/01 05:34:39;;;;;;;19.02;3.53;;;;;;;;;;5111256;28;20046;-67
2023/11/01 05:37:46;;;;;;;20.88;3.25;;;;;;;;;;5110662;28;20047;-68
2023/11/01 05:40:50;;;;;;;17.42;3.25;;;;;;;;;;5110231;28;20059;-67
2023/11/01 05:43:54;;;;;;;16.55;3.95;;;;;;;;;;5110404;28;20035;-68
2023/11/01 05:47:02;;;;;;;15.35;3.33;;;;;;;;;;5111254;28;20038;-68
2023/11/01 05:50:07;;;;;;;18.08;4.55;;;;;;;;;;5111141;28;20636;-68
2023/11/01 05:53:11;;;;;;;18.92;4.13;;;;;;;;;;5110972;28;20055;-68
2023/11/01 05:56:15;;;;;;;18.02;3.55;;;;;;;;;;5111602;28;20042;-69
2023/11/01 05:59:20;;;;;;;20.80;3.38;;;;;;;;;;5111134;28;20050;-68
2023/11/01 06:02:24;;;;;;;26.23;4.97;;;;;;;;;;5111449;28;20039;-69
2023/11/01 06:05:29;;;;;;;21.50;3.58;;;;;;;;;;5111625;28;20043;-68
2023/11/01 06:08:33;;;;;;;14.60;2.95;;;;;;;;;;5111204;28;20156;-68
2023/11/01 06:11:37;;;;;;;21.27;2.92;;;;;;;;;;5110944;28;20059;-68
2023/11/01 06:14:43;;;;;;;17.48;3.17;;;17.10;99.90;;;;;;5111299;28;20114;-68
2023/11/01 06:17:47;;;;;;;21.83;3.53;;;;;;;;;;5110960;28;20600;-68
2023/11/01 06:20:51;;;;;;;21.00;3.13;;;;;;;;;;5110719;28;20051;-69
2023/11/01 06:23:59;;;;;;;14.48;3.15;;;;;;;;;;5111470;28;20043;-69
2023/11/01 06:27:04;;;;;;;16.38;3.15;;;;;;;;;;5114509;28;20051;-68
2023/11/01 06:30:09;;;;;;;16.40;4.03;;;;;;;;;;5114430;28;20054;-68
2023/11/01 06:33:13;;;;;;;14.88;2.95;;;;;;;;;;5114282;28;20039;-68
2023/11/01 06:36:17;;;;;;;16.75;3.00;;;;;;;;;;5114545;28;20042;-68
2023/11/01 06:39:22;;;;;;;22.08;3.17;;;;;;;;;;5114426;28;20047;-67
2023/11/01 06:42:27;;;;;;;23.10;3.25;;;;;;;;;;5114533;28;20050;-68
2023/11/01 06:45:31;;;;;;;17.58;3.40;;;;;;;;;;5114448;28;20046;-68
2023/11/01 06:48:35;;;;;;;21.73;3.33;;;;;;;;;;5114062;28;20043;-68
2023/11/01 06:51:39;;;;;;;21.85;3.70;;;;;;;;;;5114351;28;20656;-68
2023/11/01 06:54:44;;;;;;;19.40;3.25;;;;;;;;;;5114354;28;20411;-68
2023/11/01 06:57:48;;;;;;;19.40;4.65;;;;;;;;;;5113960;28;20051;-68
2023/11/01 07:00:53;;;;;;;13.15;3.53;;;;;;;;;;5114228;28;20042;-68
2023/11/01 07:03:57;;;;;;;18.05;4.20;;;;;;;;;;5113097;28;20129;-68
2023/11/01 07:07:01;;;;;;;19.02;4.10;;;;;;;;;;5112890;28;20047;-66
2023/11/01 07:10:07;;;;;;;19.05;7.55;;;;;;;;;;5113833;28;20077;-68
2023/11/01 07:13:12;;;;;;;18.45;7.15;;;;;;;;;;5113639;28;20399;-68
2023/11/01 07:16:16;;;;;;;21.98;5.00;;;;;;;;;;5113976;28;20663;-68
2023/11/01 07:19:21;;;;;;;24.95;5.32;;;;;;;;;;5113769;28;20050;-68
2023/11/01 07:22:25;;;;;;;18.10;3.72;;;;;;;;;;5112729;28;20502;-68
2023/11/01 07:25:29;;;;;;;22.70;3.63;;;;;;;;;;5112717;28;20046;-69
2023/11/01 07:28:34;;;;;;;16.17;5.20;;;18.20;99.90;;;;;;5113710;28;20042;-67
2023/11/01 07:31:39;;;;;;;26.77;4.53;;;;;;;;;;5113182;28;20121;-68
2023/11/01 07:34:43;;;;;;;25.42;5.38;;;;;;;;;;5113392;28;20050;-71
2023/11/01 07:37:47;;;;;;;23.85;4.35;;;;;;;;;;5112900;28;20046;-67
2023/11/01 07:40:51;;;;;;;25.67;4.90;;;;;;;;;;5113186;28;20039;-68
2023/11/01 07:43:56;;;;;;;18.52;4.32;;;;;;;;;;5113302;28;20043;-67
2023/11/01 07:47:00;;;;;;;25.40;4.50;;;;;;;;;;5112862;28;20406;-68
2023/11/01 07:50:06;;;;;;;19.63;4.13;;;;;;;;;;5113077;28;20058;-68
2023/11/01 07:53:11;;;;;;;21.45;3.72;;;;;;;;;;5112909;28;20042;-67
2023/11/01 07:56:15;;;;;;;16.73;3.40;;;;;;;;;;5112941;28;20054;-68
2023/11/01 07:59:20;;;;;;;19.02;3.28;;;;;;;;;;5112990;28;20042;-67
2023/11/01 08:02:24;;;;;;;16.90;3.17;;;;;;;;;;5113065;28;20047;-67
2023/11/01 08:05:29;;;;;;;14.43;3.22;;;;;;;;;;5112865;28;20046;-70
2023/11/01 08:08:33;;;;;;;21.77;3.63;;;;;;;;;;5112560;28;20499;-68
2023/11/01 08:11:38;;;;;;;17.48;3.17;;;;;;;;;;5112586;28;20430;-68
2023/11/01 08:14:42;;;;;;;18.98;3.50;;;;;;;;;;5112730;28;20043;-68
2023/11/01 08:17:46;;;;;;;21.58;3.65;;;19.80;97.20;;;;;;5111847;28;20042;-69
2023/11/01 08:20:53;;;;;;;19.77;3.15;;;;;;;;;;5112283;28;20111;-69
2023/11/01 08:23:57;;;;;;;13.45;3.13;;;;;;;;;;5112406;28;20047;-67
2023/11/01 08:27:02;;;;;;;18.58;3.05;;;;;;;;;;5112157;28;20105;-68
2023/11/01 08:30:07;;;;;;;20.05;3.58;;;19.70;96.40;;;;;;5112053;28;20051;-68
2023/11/01 08:33:11;;;;;;;22.38;3.80;;;;;;;;;;5112318;28;20383;-68
2023/11/01 08:36:16;;;;;;;13.07;2.70;;;;;;;;;;5111488;28;20632;-68
2023/11/01 08:39:21;;;;;;;15.68;3.22;;;;;;;;;;5111228;28;20046;-68
2023/11/01 08:42:25;;;;;;;16.85;2.83;;;18.20;95.90;;;;;;5112077;28;20038;-67
2023/11/01 08:45:29;;;;;;;18.20;3.70;;;;;;;;;;5112246;28;20047;-68
2023/11/01 08:48:33;;;;;;;20.83;4.13;;;;;;;;;;5111163;28;20063;-69
2023/11/01 08:51:39;;;;;;;20.65;3.17;;;;;;;;;;5111749;28;20059;-69
2023/11/01 08:54:43;;;;;;;15.90;2.88;;;;;;;;;;5112163;28;20042;-69
2023/11/01 08:57:47;;;;;;;26.30;3.40;;;19.70;95.90;;;;;;5111106;28;20526;-68
2023/11/01 09:00:51;;;;;;;20.10;4.57;;;20.20;96.00;;;;;;5111948;28;20047;-68
2023/11/01 09:03:55;;;;;;;22.95;5.80;;;21.90;96.40;;;;;;5112110;28;20113;-69
2023/11/01 09:06:59;;;;;;;21.50;6.55;;;20.20;95.90;;;;;;5111443;28;20423;-69
2023/11/01 09:10:04;;;;;;;21.35;6.38;;;21.10;96.30;;;;;;5111381;28;20055;-68
2023/11/01 09:13:09;;;;;;;27.08;7.07;;;;;;;;;;5111823;28;20070;-68
2023/11/01 09:16:13;;;;;;;26.67;8.23;;;20.30;96.00;;;;;;5111353;28;20039;-68
2023/11/01 09:19:17;;;;;;;21.65;6.60;;;20.10;95.90;;;;;;5111638;28;20050;-68
2023/11/01 09:22:21;;;;;;;22.67;6.40;;;;;;;;;;5111348;28;20363;-69
2023/11/01 09:25:27;;;;;;;29.50;6.70;;;20.00;95.80;;;;;;5111485;28;20047;-68
2023/11/01 09:28:30;;;;;;;20.40;6.78;;;21.40;96.10;;;;;;5110612;28;20047;-68
2023/11/01 09:31:37;;;;;;;27.45;9.23;;;20.30;95.60;;;;;;5111262;28;20399;-69
2023/11/01 09:34:41;;;;;;;17.35;5.30;;;21.40;95.90;;;;;;5111208;28;20047;-67
2023/11/01 09:37:45;;;;;;;15.10;4.50;;;20.60;95.70;;;;;;5111274;28;20039;-69
2023/11/01 09:40:51;;;;;;;21.30;4.88;;;20.40;95.50;;;;;;5111068;28;20043;-69
2023/11/01 09:43:56;;;;;;;19.98;5.00;;;20.40;95.60;;;;;;5111165;28;20498;-68
2023/11/01 09:47:00;;;;;;;12.38;4.78;;;20.40;95.40;;;;;;5110932;28;20047;-66
2023/11/01 09:50:09;;;;;;;15.38;3.40;;;20.60;95.20;;;;;;5110923;28;20598;-69
2023/11/01 09:53:15;;;;;;;14.55;4.05;;;20.90;95.50;;;;;;5110249;28;20039;-69
2023/11/01 09:56:26;;;;;;;19.50;6.57;;;20.70;95.30;;;;;;5111090;28;20043;-70
2023/11/01 09:59:32;;;;;;;17.40;4.10;;;20.70;95.30;;;;;;5112572;28;20035;-68
2023/11/01 10:02:37;;;;;;;17.67;5.40;;;20.70;95.20;;;;;;5115172;28;20063;-68
2023/11/01 10:05:41;;;;;;;15.35;5.93;;;20.80;95.20;;;;;;5115181;28;20062;-68
2023/11/01 10:08:48;;;;;;;21.10;6.55;;;20.80;94.90;;;;;;5115257;28;20062;-68
2023/11/01 10:11:52;;;;;;;13.02;5.15;;;20.80;95.10;;;;;;5115073;28;20050;-69
2023/11/01 10:14:56;;;;;;;17.13;5.95;;;20.80;95.00;;;;;;5115233;28;20042;-67
2023/11/01 10:18:00;;;;;;;12.88;4.78;;;20.90;95.40;;;;;;5115010;28;20529;-67
2023/11/01 10:21:04;;;;;;;12.52;3.58;;;20.90;95.40;;;;;;5114689;28;20510;-68
2023/11/01 10:24:08;;;;;;;14.98;3.63;;;20.90;95.60;;;;;;5115001;28;20063;-68
2023/11/01 10:27:12;;;;;;;14.45;3.53;;;18.90;94.40;;;;;;5114689;28;20498;-68
2023/11/01 10:30:17;;;;;;;12.95;2.78;;;;;;;;;;5114198;28;20054;-68
2023/11/01 10:33:21;;;;;;;11.20;2.22;;;19.40;94.60;;;;;;5114847;28;20039;-68
2023/11/01 10:36:26;;;;;;;13.07;2.60;;;21.10;95.00;;;;;;5114519;28;20045;-68
2023/11/01 10:39:33;;;;;;;15.95;2.88;;;21.10;95.20;;;;;;5114512;28;20066;-69
2023/11/01 10:42:41;;;;;;;12.05;2.97;;;19.80;94.70;;;;;;5114535;28;20051;-68
2023/11/01 10:45:50;;;;;;;12.25;2.30;;;21.20;95.20;;;;;;5113512;28;20043;-68
2023/11/01 10:48:54;;;;;;;9.13;2.33;;;21.20;95.40;;;;;;5114088;28;20042;-69
2023/11/01 10:52:00;;;;;;;10.75;2.00;;;21.40;94.70;;;;;;5114488;28;20054;-70
2023/11/01 10:55:05;;;;;;;12.57;2.40;;;21.30;94.90;;;;;;5114268;28;20063;-68
2023/11/01 10:58:15;;;;;;;10.13;1.90;;;21.30;94.70;;;;;;5114221;28;20043;-68
2023/11/01 11:01:59;;;;;;;13.95;2.33;;;21.40;94.20;;;;;;5114355;28;20066;-67
2023/11/01 11:05:05;;;;;;;9.95;1.88;;;21.40;94.40;;;;;;5114113;28;20506;-67
2023/11/01 11:08:10;;;;;;;9.20;1.65;;;21.40;94.00;;;;;;5114110;28;20043;-68
2023/11/01 11:11:16;;;;;;;8.75;1.60;;;21.50;94.00;;;;;;5112606;28;20410;-68
2023/11/01 11:14:42;;;;;;;6.80;1.52;;;21.40;94.10;;;;;;5114531;28;20502;-68
2023/11/01 11:18:08;;;;;;;7.70;1.48;;;21.40;94.20;;;;;;5113666;28;20038;-67
2023/11/01 11:21:47;;;;;;;8.13;1.60;;;21.40;94.20;;;;;;5113709;28;20043;-68
2023/11/01 11:24:55;;;;;;;9.45;1.70;;;21.30;94.10;;;;;;5072931;28;20159;-66
2023/11/01 11:28:02;;;;;;;6.80;1.65;;;21.40;94.30;;;;;;5113554;28;20046;-68
2023/11/01 11:31:07;;;;;;;9.75;1.70;;;21.40;94.30;;;;;;5113554;28;20050;-68
2023/11/01 11:34:11;;;;;;;17.48;1.92;;;21.30;94.10;;;;;;5112912;28;20494;-69
2023/11/01 11:37:19;;;;;;;8.98;1.52;;;21.30;94.40;;;;;;5113233;28;20109;-68
2023/11/01 11:40:24;;;;;;;8.10;1.50;;;21.30;94.40;;;;;;5113728;28;20043;-67
2023/11/01 11:44:07;;;;;;;6.93;1.73;;;21.10;94.50;;;;;;5113229;28;20058;-68
2023/11/01 11:47:29;;;;;;;6.80;1.70;;;21.30;94.50;;;;;;5113384;28;20376;-68
2023/11/01 11:50:33;;;;;;;7.07;2.00;;;21.30;94.60;;;;;;5113066;28;20050;-67
2023/11/01 11:53:40;;;;;;;16.02;2.70;;;22.10;94.40;;;;;;5112985;28;20035;-68
2023/11/01 11:56:45;;;;;;;7.00;1.70;;;21.20;94.40;;;;;;5111973;28;20051;-68
2023/11/01 11:59:50;;;;;;;6.28;2.05;;;21.20;94.30;;;;;;5112805;28;20038;-68
2023/11/01 12:02:54;;;;;;;9.35;1.92;;;21.20;94.30;;;;;;5112955;28;20399;-68
2023/11/01 12:05:59;;;;;;;10.43;2.60;;;21.20;94.80;;;;;;5112165;28;20035;-68
2023/11/01 12:09:04;;;;;;;10.45;2.88;;;21.10;94.90;;;;;;5112907;28;20051;-68
2023/11/01 12:12:13;;;;;;;13.75;3.17;;;21.10;95.20;;;;;;5112836;28;20051;-68
2023/11/01 12:15:17;;;;;;;14.38;3.03;;;21.10;95.90;;;;;;5112078;28;20051;-69
2023/11/01 12:18:23;;;;;;;14.57;3.88;;;21.10;96.20;;;;;;5112384;28;20043;-68
2023/11/01 12:21:27;;;;;;;15.43;7.05;;;21.00;96.90;;;;;;5112196;28;20430;-69
2023/11/01 12:24:37;;;;;;;19.55;5.50;;;21.00;96.90;;;;;;5112247;28;20046;-69
2023/11/01 12:27:42;;;;;;;17.75;5.05;;;18.80;96.90;;;;;;5112193;28;20043;-68
2023/11/01 12:30:46;;;;;;;13.32;4.00;;;20.80;97.60;;;;;;5111847;28;20058;-68
2023/11/01 12:34:08;;;;;;;20.73;7.90;;;20.80;97.90;;;;;;5111476;28;20594;-68
2023/11/01 12:37:19;;;;;;;21.25;7.97;;;20.80;98.20;;;;;;5112225;28;20448;-69
2023/11/01 12:40:26;;;;;;;11.20;3.47;;;20.60;98.90;;;;;;5112228;28;20054;-69
2023/11/01 12:43:32;;;;;;;11.25;2.10;;;20.50;98.80;;;;;;5112339;28;20043;-68
2023/11/01 12:46:36;;;;;;;10.95;1.70;;;20.40;98.80;;;;;;5111934;28;20047;-68
2023/11/01 12:49:40;;;;;;;7.05;2.00;;;21.80;99.40;;;;;;5111838;28;20050;-69
2023/11/01 12:52:45;;;;;;;8.35;2.05;;;19.90;99.20;;;;;;5112100;28;20050;-69
2023/11/01 12:55:49;;;;;;;11.30;2.10;;;20.20;99.80;;;;;;5111685;28;20043;-68
2023/11/01 12:58:53;;;;;;;8.60;2.10;;;;;;;;;;5111106;28;20038;-69
2023/11/01 13:01:57;;;;;;;13.68;2.50;;;;;;;;;;5112052;28;20048;-68
2023/11/01 13:05:02;;;;;;;10.55;1.88;;;20.00;99.90;;;;;;5111807;28;20050;-69
2023/11/01 13:08:07;;;;;;;8.10;1.92;;;;;;;;;;5111696;28;20094;-68
2023/11/01 13:11:12;;;;;;;13.50;3.90;;;;;;;;;;5098600;28;20483;-69
2023/11/01 13:14:16;;;;;;;21.60;4.15;;;19.80;99.90;;;;;;5111733;28;20039;-67
2023/11/01 13:17:20;;;;;;;21.05;5.13;;;;;;;;;;5111462;28;20395;-69
2023/11/01 13:20:24;;;;;;;13.27;3.65;;;19.80;99.90;;;;;;5110693;28;20078;-68
2023/11/01 13:23:28;;;;;;;11.93;3.70;;;;;;;;;;5111934;28;20044;-68
2023/11/01 13:26:33;;;;;;;12.82;3.13;;;;;;;;;;5111695;28;20046;-67
2023/11/01 13:29:38;;;;;;;22.65;5.40;;;18.60;99.90;;;;;;5111195;28;20055;-67
2023/11/01 13:32:43;;;;;;;16.65;3.05;;;;;;;;;;5111542;28;20058;-67
2023/11/01 13:35:48;;;;;;;7.60;1.92;;;;;;;;;;5110707;28;20042;-68
2023/11/01 13:38:52;;;;;;;4.50;1.13;;;;;;;;;;5111163;28;20399;-67
2023/11/01 13:41:56;;;;;;;2.42;0.90;;;;;;;;;;5111362;28;20032;-67
2023/11/01 13:45:01;;;;;;;3.78;1.25;;;;;;;;;;5111169;28;20031;-67
2023/11/01 13:48:06;;;;;;;1.33;0.80;;;;;;;;;;5111268;28;20480;-67
2023/11/01 13:51:10;;;;;;;3.47;0.70;;;;;;;;;;5111154;28;20043;-67
2023/11/01 13:54:17;;;;;;;2.50;0.65;;;;;;;;;;5111211;28;20167;-67
2023/11/01 13:57:22;;;;;;;3.80;0.50;;;;;;;;;;5111168;28;20361;-67
2023/11/01 14:00:26;;;;;;;5.00;0.70;;;;;;;;;;5111027;28;20036;-67
2023/11/01 14:03:35;;;;;;;3.65;1.20;;;;;;;;;;5111076;28;20036;-67
2023/11/01 14:06:40;;;;;;;5.72;2.20;;;;;;;;;;5110968;28;20039;-68
2023/11/01 14:09:45;;;;;;;5.00;2.03;;;;;;;;;;5110048;28;20035;-68
2023/11/01 14:12:49;;;;;;;5.25;0.85;;;;;;;;;;5110895;28;20048;-67
2023/11/01 14:15:56;;;;;;;3.35;1.00;;;;;;;;;;5111224;28;20048;-68
2023/11/01 14:19:00;;;;;;;2.88;0.75;;;;;;;;;;5110913;28;20043;-66
2023/11/01 14:22:04;;;;;;;6.78;1.10;;;;;;;;;;5110923;28;20043;-68
2023/11/01 14:25:12;;;;;;;3.80;1.40;;;;;;;;;;5111167;28;20035;-67
2023/11/01 14:28:17;;;;;;;4.05;1.35;;;;;;;;;;5110507;28;20634;-67
2023/11/01 14:31:24;;;;;;;5.15;1.60;;;;;;;;;;5110638;28;20048;-67
2023/11/01 14:34:29;;;;;;;6.50;2.00;;;;;;;;;;5110630;28;20036;-68
2023/11/01 14:37:33;;;;;;;8.25;2.50;;;;;;;;;;5110718;28;20039;-69
2023/11/01 14:40:37;;;;;;;5.03;2.00;;;;;;;;;;5110843;28;20032;-68
2023/11/01 14:43:42;;;;;;;2.80;1.13;;;;;;;;;;5110656;28;20036;-67
2023/11/01 14:46:46;;;;;;;3.63;1.13;;;;;;;;;;5114391;28;20036;-68
2023/11/01 14:49:51;;;;;;;5.57;1.10;;;;;;;;;;5114234;28;20036;-68
2023/11/01 14:52:57;;;;;;;5.05;1.25;;;;;;;;;;5114375;28;20495;-68
2023/11/01 14:56:02;;;;;;;4.15;1.02;;;;;;;;;;5114460;28;20027;-66
2023/11/01 14:59:06;;;;;;;8.02;1.52;;;;;;;;;;5114040;28;20040;-68
2023/11/01 15:02:11;;;;;;;3.10;1.08;;;;;;;;;;5114106;28;20130;-68
2023/11/01 15:05:17;;;;;;;5.18;1.85;;;;;;;;;;5114277;28;20036;-68
2023/11/01 15:08:22;;;;;;;3.90;1.52;;;;;;;;;;5113977;28;20035;-67
2023/11/01 15:11:26;;;;;;;4.20;2.00;;;;;;;;;;5113828;28;20047;-68
2023/11/01 15:14:31;;;;;;;4.80;1.73;;;;;;;;;;5114056;28;20368;-68
2023/11/01 15:17:35;;;;;;;3.10;1.20;;;;;;;;;;5113770;28;20043;-67
2023/11/01 15:20:40;;;;;;;4.47;1.80;;;;;;;;;;5113800;28;20036;-68
2023/11/01 15:23:45;;;;;;;10.10;5.15;;;;;;;;;;5113212;28;20040;-68
2023/11/01 15:26:49;;;;;;;12.10;6.35;;;;;;;;;;5112692;28;20039;-68
2023/11/01 15:29:54;;;;;;;17.77;9.32;;;;;;;;;;5113024;28;20396;-66
2023/11/01 15:32:58;;;;;;;8.10;3.38;;;;;;;;;;5112998;28;20054;-68
2023/11/01 15:36:03;;;;;;;5.47;1.58;;;;;;;;;;5113144;28;20036;-68
2023/11/01 15:39:07;;;;;;;6.63;1.80;;;;;;;;;;5113194;28;20047;-68
2023/11/01 15:42:13;;;;;;;6.43;3.60;;;;;;;;;;5113400;28;20032;-68
2023/11/01 15:45:17;;;;;;;10.00;4.53;;;;;;;;;;5113150;28;20039;-67
2023/11/01 15:48:21;;;;;;;10.93;4.45;;;;;;;;;;5112994;28;20043;-67
2023/11/01 15:51:25;;;;;;;8.32;3.90;;;;;;;;;;5100457;28;20051;-68
2023/11/01 15:54:30;;;;;;;7.45;2.72;;;;;;;;;;5113006;28;20028;-68
2023/11/01 15:57:35;;;;;;;8.23;2.78;;;;;;;;;;5111964;28;20031;-68
2023/11/01 16:00:39;;;;;;;10.98;3.00;;;;;;;;;;5112229;28;20035;-67
2023/11/01 16:03:43;;;;;;;5.88;2.40;;;;;;;;;;5112912;28;20046;-68
2023/11/01 16:06:51;;;;;;;7.25;2.72;;;;;;;;;;5111963;28;20035;-67
2023/11/01 16:09:55;;;;;;;6.57;2.42;;;;;;;;;;5112899;28;20035;-68
2023/11/01 16:12:59;;;;;;;5.90;2.20;;;;;;;;;;5112706;28;20055;-67
2023/11/01 16:16:04;;;;;;;10.05;2.47;;;;;;;;;;5112613;28;20036;-67
2023/11/01 16:19:10;;;;;;;5.55;2.50;;;;;;;;;;5112776;28;20042;-68
2023/11/01 16:22:14;;;;;;;10.10;2.88;;;;;;;;;;5112323;28;20035;-68
2023/11/01 16:25:18;;;;;;;9.18;3.30;;;;;;;;;;5112616;28;20066;-67
2023/11/01 16:28:26;;;;;;;8.50;4.55;;;;;;;;;;5112812;28;20028;-68
2023/11/01 16:31:30;;;;;;;9.07;4.57;;;;;;;;;;5112077;28;20056;-68
2023/11/01 16:34:37;;;;;;;12.80;4.22;;;;;;;;;;5112906;28;20027;-68
2023/11/01 16:37:42;;;;;;;10.95;3.42;;;;;;;;;;5111923;28;20042;-68
2023/11/01 16:40:46;;;;;;;8.15;2.78;;;;;;;;;;5112377;28;20149;-68
2023/11/01 16:43:50;;;;;;;5.55;2.45;;;;;;;;;;5111261;28;20036;-68
2023/11/01 16:46:55;;;;;;;7.32;3.22;;;;;;;;;;5112456;28;20036;-68
2023/11/01 16:49:59;;;;;;;7.88;3.75;;;;;;;;;;5112360;28;20039;-68
2023/11/01 16:53:04;;;;;;;8.45;3.30;;;;;;;;;;5111830;28;20380;-68
2023/11/01 16:56:09;;;;;;;14.40;3.97;;;;;;;;;;5112065;28;20036;-68
2023/11/01 16:59:13;;;;;;;8.57;3.20;;;;;;;;;;5111422;28;20043;-67
2023/11/01 17:02:17;;;;;;;8.80;3.22;;;;;;;;;;5111647;28;20432;-67
2023/11/01 17:05:22;;;;;;;9.07;3.03;;;;;;;;;;5111870;28;20040;-68
2023/11/01 17:08:26;;;;;;;8.55;3.05;;;;;;;;;;5111156;28;20032;-68
2023/11/01 17:11:30;;;;;;;8.70;2.75;;;;;;;;;;5111512;28;20040;-67
2023/11/01 17:14:35;;;;;;;9.75;2.63;;;;;;;;;;5111751;28;20483;-67
2023/11/01 17:17:42;;;;;;;6.45;2.67;;;16.70;99.90;;;;;;5111286;28;20031;-67
2023/11/01 17:20:47;;;;;;;4.68;2.25;;;;;;;;;;5111644;28;20046;-67
2023/11/01 17:23:51;;;;;;;7.82;2.58;;;;;;;;;;5111506;28;20031;-67
2023/11/01 17:26:57;;;;;;;10.55;3.15;;;;;;;;;;5111373;28;20036;-68
2023/11/01 17:30:04;;;;;;;5.25;2.47;;;17.00;99.90;;;;;;5110895;28;20510;-68
2023/11/01 17:33:08;;;;;;;6.65;2.38;;;;;;;;;;5111434;28;20109;-68
2023/11/01 17:36:19;;;;;;;7.03;2.80;;;;;;;;;;5111439;28;20460;-67